Terminal Aerodrome Forecast
Issued by NWS

Home | Current Version | Previous Version | Text Only | Print | Product List | Glossary On
Versions: 1 2 3 4 5 6 7 8 9 10 11 12 13 14 15 16 17 18 19 20 21 22 23 24 25 26 27 28
000
FTUS41 KOKX 040230 AAA
TAFTEB
TAF AMD
KTEB 040230Z 0402/0424 VRB03KT P6SM FEW070 BKN200
     FM040900 VRB02KT P6SM OVC120
     FM041300 06008KT P6SM SCT050 OVC080 PROB30 0413/0418 6SM -RA
      BKN050
     FM041800 03007KT P6SM BKN120=

USA.gov is the U.S. government's official web portal to all federal, state and local government web resources and services.